sensor_id;sensor_type;location;lat;lon;timestamp;temperature;humidity
13440;DHT22;6792;57.698;11.946;2022-10-16T00:01:43;20.00;57.40
13440;DHT22;6792;57.698;11.946;2022-10-16T00:04:12;20.00;57.40
13440;DHT22;6792;57.698;11.946;2022-10-16T00:06:41;20.00;57.40
13440;DHT22;6792;57.698;11.946;2022-10-16T00:09:10;20.10;57.40
13440;DHT22;6792;57.698;11.946;2022-10-16T00:11:41;20.10;57.20
13440;DHT22;6792;57.698;11.946;2022-10-16T00:14:12;20.10;57.20
13440;DHT22;6792;57.698;11.946;2022-10-16T00:16:41;20.00;57.00
13440;DHT22;6792;57.698;11.946;2022-10-16T00:19:11;19.90;56.50
13440;DHT22;6792;57.698;11.946;2022-10-16T00:21:40;19.90;57.00
13440;DHT22;6792;57.698;11.946;2022-10-16T00:24:10;19.90;57.10
13440;DHT22;6792;57.698;11.946;2022-10-16T00:26:40;19.80;57.00
13440;DHT22;6792;57.698;11.946;2022-10-16T00:29:09;19.80;57.00
13440;DHT22;6792;57.698;11.946;2022-10-16T00:31:38;19.80;57.00
13440;DHT22;6792;57.698;11.946;2022-10-16T00:34:06;19.80;57.00
13440;DHT22;6792;57.698;11.946;2022-10-16T00:36:35;19.80;57.00
13440;DHT22;6792;57.698;11.946;2022-10-16T00:39:04;19.80;56.90
13440;DHT22;6792;57.698;11.946;2022-10-16T00:41:34;19.80;56.90
13440;DHT22;6792;57.698;11.946;2022-10-16T00:46:52;19.70;56.80
13440;DHT22;6792;57.698;11.946;2022-10-16T00:49:21;19.70;56.90
13440;DHT22;6792;57.698;11.946;2022-10-16T00:51:52;19.70;56.80
13440;DHT22;6792;57.698;11.946;2022-10-16T00:54:24;19.60;56.20
13440;DHT22;6792;57.698;11.946;2022-10-16T00:56:54;19.60;56.70
13440;DHT22;6792;57.698;11.946;2022-10-16T00:59:27;19.50;56.70
13440;DHT22;6792;57.698;11.946;2022-10-16T01:01:57;19.50;56.70
13440;DHT22;6792;57.698;11.946;2022-10-16T01:04:27;19.40;56.70
13440;DHT22;6792;57.698;11.946;2022-10-16T01:07:00;19.40;56.70
13440;DHT22;6792;57.698;11.946;2022-10-16T01:09:31;19.40;56.70
13440;DHT22;6792;57.698;11.946;2022-10-16T01:12:06;19.40;56.60
13440;DHT22;6792;57.698;11.946;2022-10-16T01:14:39;19.40;56.10
13440;DHT22;6792;57.698;11.946;2022-10-16T01:17:10;19.40;56.70
13440;DHT22;6792;57.698;11.946;2022-10-16T01:19:50;19.40;56.50
13440;DHT22;6792;57.698;11.946;2022-10-16T01:22:15;19.40;56.50
13440;DHT22;6792;57.698;11.946;2022-10-16T01:24:48;19.40;55.90
13440;DHT22;6792;57.698;11.946;2022-10-16T07:41:46;18.60;59.00
13440;DHT22;6792;57.698;11.946;2022-10-16T07:44:16;18.70;58.90
13440;DHT22;6792;57.698;11.946;2022-10-16T07:46:45;18.80;58.70
13440;DHT22;6792;57.698;11.946;2022-10-16T07:49:14;18.90;58.60
13440;DHT22;6792;57.698;11.946;2022-10-16T07:51:43;19.00;58.50
13440;DHT22;6792;57.698;11.946;2022-10-16T07:54:12;19.00;58.50
13440;DHT22;6792;57.698;11.946;2022-10-16T07:56:41;19.00;58.40
13440;DHT22;6792;57.698;11.946;2022-10-16T07:59:09;19.00;58.50
13440;DHT22;6792;57.698;11.946;2022-10-16T08:01:39;19.10;58.50
13440;DHT22;6792;57.698;11.946;2022-10-16T08:04:09;19.10;58.40
13440;DHT22;6792;57.698;11.946;2022-10-16T08:06:39;19.20;58.40
13440;DHT22;6792;57.698;11.946;2022-10-16T08:09:08;19.20;58.30
13440;DHT22;6792;57.698;11.946;2022-10-16T08:11:37;19.20;58.40
13440;DHT22;6792;57.698;11.946;2022-10-16T08:14:06;19.30;58.40
13440;DHT22;6792;57.698;11.946;2022-10-16T08:16:35;19.30;58.40
13440;DHT22;6792;57.698;11.946;2022-10-16T08:19:04;19.30;57.80
13440;DHT22;6792;57.698;11.946;2022-10-16T08:21:33;19.40;58.30
13440;DHT22;6792;57.698;11.946;2022-10-16T08:24:02;19.40;58.20
13440;DHT22;6792;57.698;11.946;2022-10-16T08:26:31;19.50;58.30
13440;DHT22;6792;57.698;11.946;2022-10-16T08:29:00;19.50;58.30
13440;DHT22;6792;57.698;11.946;2022-10-16T08:31:29;19.50;58.30
13440;DHT22;6792;57.698;11.946;2022-10-16T08:33:58;19.50;58.20
13440;DHT22;6792;57.698;11.946;2022-10-16T08:36:27;19.50;58.20
13440;DHT22;6792;57.698;11.946;2022-10-16T08:38:56;19.60;58.30
13440;DHT22;6792;57.698;11.946;2022-10-16T08:41:33;19.60;58.20
13440;DHT22;6792;57.698;11.946;2022-10-16T08:44:16;19.60;58.30
13440;DHT22;6792;57.698;11.946;2022-10-16T08:46:47;19.60;57.80
13440;DHT22;6792;57.698;11.946;2022-10-16T08:49:17;19.60;58.40
13440;DHT22;6792;57.698;11.946;2022-10-16T08:51:46;19.60;58.40
13440;DHT22;6792;57.698;11.946;2022-10-16T08:54:22;19.60;58.40
13440;DHT22;6792;57.698;11.946;2022-10-16T08:56:54;19.70;58.90
13440;DHT22;6792;57.698;11.946;2022-10-16T08:59:23;19.70;58.30
13440;DHT22;6792;57.698;11.946;2022-10-16T09:01:52;19.70;58.20
13440;DHT22;6792;57.698;11.946;2022-10-16T09:04:41;19.80;58.20
13440;DHT22;6792;57.698;11.946;2022-10-16T09:07:13;19.80;58.20
13440;DHT22;6792;57.698;11.946;2022-10-16T09:09:52;19.80;57.60
13440;DHT22;6792;57.698;11.946;2022-10-16T09:12:24;19.90;58.10
13440;DHT22;6792;57.698;11.946;2022-10-16T09:14:59;19.90;58.10
13440;DHT22;6792;57.698;11.946;2022-10-16T09:17:36;19.90;58.00
13440;DHT22;6792;57.698;11.946;2022-10-16T09:20:15;19.90;57.90
13440;DHT22;6792;57.698;11.946;2022-10-16T09:22:44;19.90;57.90
13440;DHT22;6792;57.698;11.946;2022-10-16T09:25:16;19.90;57.90
13440;DHT22;6792;57.698;11.946;2022-10-16T09:27:47;19.90;57.80
13440;DHT22;6792;57.698;11.946;2022-10-16T09:30:19;19.90;57.80
13440;DHT22;6792;57.698;11.946;2022-10-16T09:32:51;19.90;57.70
13440;DHT22;6792;57.698;11.946;2022-10-16T09:35:22;19.90;57.60
13440;DHT22;6792;57.698;11.946;2022-10-16T09:37:54;19.90;57.60
13440;DHT22;6792;57.698;11.946;2022-10-16T09:40:28;19.90;57.50
13440;DHT22;6792;57.698;11.946;2022-10-16T09:43:02;19.90;57.50
13440;DHT22;6792;57.698;11.946;2022-10-16T09:45:32;19.90;57.00
13440;DHT22;6792;57.698;11.946;2022-10-16T09:48:10;19.90;57.40
13440;DHT22;6792;57.698;11.946;2022-10-16T09:50:39;20.00;57.40
13440;DHT22;6792;57.698;11.946;2022-10-16T09:53:12;20.00;57.30
13440;DHT22;6792;57.698;11.946;2022-10-16T09:55:52;20.10;57.20
13440;DHT22;6792;57.698;11.946;2022-10-16T09:58:23;20.10;57.70
13440;DHT22;6792;57.698;11.946;2022-10-16T10:00:54;20.10;57.10
13440;DHT22;6792;57.698;11.946;2022-10-16T10:03:35;20.10;57.10
13440;DHT22;6792;57.698;11.946;2022-10-16T10:06:16;20.20;57.00
13440;DHT22;6792;57.698;11.946;2022-10-16T10:08:38;20.20;56.90
13440;DHT22;6792;57.698;11.946;2022-10-16T10:11:07;20.20;56.80
13440;DHT22;6792;57.698;11.946;2022-10-16T10:13:36;20.20;56.80
13440;DHT22;6792;57.698;11.946;2022-10-16T10:16:07;20.30;56.70
13440;DHT22;6792;57.698;11.946;2022-10-16T10:18:35;20.20;56.10
13440;DHT22;6792;57.698;11.946;2022-10-16T10:21:12;20.30;56.60
13440;DHT22;6792;57.698;11.946;2022-10-16T10:23:42;20.30;55.90
13440;DHT22;6792;57.698;11.946;2022-10-16T10:28:58;20.40;56.50
13440;DHT22;6792;57.698;11.946;2022-10-16T10:31:31;20.30;56.30
13440;DHT22;6792;57.698;11.946;2022-10-16T10:34:03;20.30;56.20
13440;DHT22;6792;57.698;11.946;2022-10-16T10:36:34;20.30;56.20
13440;DHT22;6792;57.698;11.946;2022-10-16T10:39:06;20.30;56.20
13440;DHT22;6792;57.698;11.946;2022-10-16T10:44:46;20.30;55.60
13440;DHT22;6792;57.698;11.946;2022-10-16T10:47:17;20.30;56.20
13440;DHT22;6792;57.698;11.946;2022-10-16T10:49:53;20.20;56.10
13440;DHT22;6792;57.698;11.946;2022-10-16T10:52:39;20.20;56.10
13440;DHT22;6792;57.698;11.946;2022-10-16T10:55:15;20.20;56.10
13440;DHT22;6792;57.698;11.946;2022-10-16T10:57:54;20.10;56.10
13440;DHT22;6792;57.698;11.946;2022-10-16T11:00:26;20.10;56.20
13440;DHT22;6792;57.698;11.946;2022-10-16T11:02:58;20.10;56.20
13440;DHT22;6792;57.698;11.946;2022-10-16T11:05:42;20.10;56.10
13440;DHT22;6792;57.698;11.946;2022-10-16T11:08:15;20.10;56.20
13440;DHT22;6792;57.698;11.946;2022-10-16T11:10:50;20.10;56.40
13440;DHT22;6792;57.698;11.946;2022-10-16T11:13:28;20.10;56.50
13440;DHT22;6792;57.698;11.946;2022-10-16T11:16:00;20.10;56.70
13440;DHT22;6792;57.698;11.946;2022-10-16T11:18:37;20.10;56.70
13440;DHT22;6792;57.698;11.946;2022-10-16T11:21:06;20.10;56.10
13440;DHT22;6792;57.698;11.946;2022-10-16T11:23:39;20.10;56.80
13440;DHT22;6792;57.698;11.946;2022-10-16T11:26:13;20.10;56.90
13440;DHT22;6792;57.698;11.946;2022-10-16T11:28:45;20.10;56.90
13440;DHT22;6792;57.698;11.946;2022-10-16T11:31:19;20.20;57.00
13440;DHT22;6792;57.698;11.946;2022-10-16T11:33:51;20.10;57.00
13440;DHT22;6792;57.698;11.946;2022-10-16T11:36:22;20.10;57.00
13440;DHT22;6792;57.698;11.946;2022-10-16T11:38:55;20.10;56.60
13440;DHT22;6792;57.698;11.946;2022-10-16T11:41:29;20.20;57.00
13440;DHT22;6792;57.698;11.946;2022-10-16T11:44:09;20.20;56.90
13440;DHT22;6792;57.698;11.946;2022-10-16T11:46:39;20.20;56.90
13440;DHT22;6792;57.698;11.946;2022-10-16T11:49:11;20.20;56.80
13440;DHT22;6792;57.698;11.946;2022-10-16T11:51:44;20.20;56.80
13440;DHT22;6792;57.698;11.946;2022-10-16T11:54:20;20.20;56.80
13440;DHT22;6792;57.698;11.946;2022-10-16T11:56:52;20.10;56.70
13440;DHT22;6792;57.698;11.946;2022-10-16T11:59:25;20.10;56.20
13440;DHT22;6792;57.698;11.946;2022-10-16T12:02:15;20.10;56.10
13440;DHT22;6792;57.698;11.946;2022-10-16T12:04:30;20.00;56.50
13440;DHT22;6792;57.698;11.946;2022-10-16T12:07:03;19.90;55.90
13440;DHT22;6792;57.698;11.946;2022-10-16T12:09:36;19.70;54.80
13440;DHT22;6792;57.698;11.946;2022-10-16T12:12:22;19.60;55.70
13440;DHT22;6792;57.698;11.946;2022-10-16T12:15:00;19.40;55.00
13440;DHT22;6792;57.698;11.946;2022-10-16T12:17:37;19.20;54.80
13440;DHT22;6792;57.698;11.946;2022-10-16T12:20:24;19.10;54.80
13440;DHT22;6792;57.698;11.946;2022-10-16T12:22:57;19.00;54.80
13440;DHT22;6792;57.698;11.946;2022-10-16T12:25:29;18.90;55.00
13440;DHT22;6792;57.698;11.946;2022-10-16T12:28:06;18.80;54.90
13440;DHT22;6792;57.698;11.946;2022-10-16T12:30:37;18.70;54.90
13440;DHT22;6792;57.698;11.946;2022-10-16T12:33:16;18.70;55.50
13440;DHT22;6792;57.698;11.946;2022-10-16T12:35:46;18.60;55.10
13440;DHT22;6792;57.698;11.946;2022-10-16T12:38:18;18.60;55.20
13440;DHT22;6792;57.698;11.946;2022-10-16T12:40:55;18.70;55.20
13440;DHT22;6792;57.698;11.946;2022-10-16T12:43:34;18.80;55.40
13440;DHT22;6792;57.698;11.946;2022-10-16T12:46:05;18.90;55.60
13440;DHT22;6792;57.698;11.946;2022-10-16T12:48:34;18.90;55.60
13440;DHT22;6792;57.698;11.946;2022-10-16T12:51:12;19.00;55.70
13440;DHT22;6792;57.698;11.946;2022-10-16T12:53:41;19.10;55.80
13440;DHT22;6792;57.698;11.946;2022-10-16T12:56:14;19.30;55.80
13440;DHT22;6792;57.698;11.946;2022-10-16T12:58:57;19.40;55.80
13440;DHT22;6792;57.698;11.946;2022-10-16T13:01:34;19.50;55.70
13440;DHT22;6792;57.698;11.946;2022-10-16T13:10:23;19.70;54.90
13440;DHT22;6792;57.698;11.946;2022-10-16T13:13:03;19.70;55.30
13440;DHT22;6792;57.698;11.946;2022-10-16T13:15:44;19.70;54.60
13440;DHT22;6792;57.698;11.946;2022-10-16T13:18:15;19.70;55.10
13440;DHT22;6792;57.698;11.946;2022-10-16T13:20:59;19.70;54.30
13440;DHT22;6792;57.698;11.946;2022-10-16T13:23:29;19.70;54.80
13440;DHT22;6792;57.698;11.946;2022-10-16T13:26:06;19.70;54.60
13440;DHT22;6792;57.698;11.946;2022-10-16T13:28:38;19.80;54.90
13440;DHT22;6792;57.698;11.946;2022-10-16T13:31:13;19.80;54.30
13440;DHT22;6792;57.698;11.946;2022-10-16T13:33:46;19.80;53.60
13440;DHT22;6792;57.698;11.946;2022-10-16T13:36:22;19.80;54.10
13440;DHT22;6792;57.698;11.946;2022-10-16T13:39:06;19.90;54.10
13440;DHT22;6792;57.698;11.946;2022-10-16T13:41:32;19.90;53.40
13440;DHT22;6792;57.698;11.946;2022-10-16T13:44:01;19.90;53.80
13440;DHT22;6792;57.698;11.946;2022-10-16T13:46:30;19.90;53.70
13440;DHT22;6792;57.698;11.946;2022-10-16T13:49:02;19.90;53.50
13440;DHT22;6792;57.698;11.946;2022-10-16T13:51:32;19.90;53.50
13440;DHT22;6792;57.698;11.946;2022-10-16T13:54:01;19.90;53.30
13440;DHT22;6792;57.698;11.946;2022-10-16T13:56:31;19.90;53.80
13440;DHT22;6792;57.698;11.946;2022-10-16T13:59:02;19.90;53.00
13440;DHT22;6792;57.698;11.946;2022-10-16T14:01:33;19.80;52.80
13440;DHT22;6792;57.698;11.946;2022-10-16T14:04:05;19.90;52.10
13440;DHT22;6792;57.698;11.946;2022-10-16T14:06:36;19.80;52.50
13440;DHT22;6792;57.698;11.946;2022-10-16T14:09:08;19.80;51.90
13440;DHT22;6792;57.698;11.946;2022-10-16T14:11:44;19.80;52.00
13440;DHT22;6792;57.698;11.946;2022-10-16T14:14:13;19.80;52.40
13440;DHT22;6792;57.698;11.946;2022-10-16T14:16:44;19.80;52.40
13440;DHT22;6792;57.698;11.946;2022-10-16T14:19:17;19.80;52.40
13440;DHT22;6792;57.698;11.946;2022-10-16T14:21:47;19.80;52.30
13440;DHT22;6792;57.698;11.946;2022-10-16T14:24:25;19.80;52.20
13440;DHT22;6792;57.698;11.946;2022-10-16T14:26:55;19.80;52.00
13440;DHT22;6792;57.698;11.946;2022-10-16T14:29:26;19.80;52.00
13440;DHT22;6792;57.698;11.946;2022-10-16T14:31:57;19.80;51.90
13440;DHT22;6792;57.698;11.946;2022-10-16T14:34:29;19.80;51.90
13440;DHT22;6792;57.698;11.946;2022-10-16T14:37:01;19.80;51.80
13440;DHT22;6792;57.698;11.946;2022-10-16T14:39:33;19.80;51.80
13440;DHT22;6792;57.698;11.946;2022-10-16T14:42:03;19.70;51.70
13440;DHT22;6792;57.698;11.946;2022-10-16T14:44:33;19.80;51.80
13440;DHT22;6792;57.698;11.946;2022-10-16T14:47:12;19.80;51.70
13440;DHT22;6792;57.698;11.946;2022-10-16T14:49:43;19.80;51.50
13440;DHT22;6792;57.698;11.946;2022-10-16T14:52:13;19.70;51.40
13440;DHT22;6792;57.698;11.946;2022-10-16T14:54:42;19.70;51.80
13440;DHT22;6792;57.698;11.946;2022-10-16T14:57:18;19.70;51.10
13440;DHT22;6792;57.698;11.946;2022-10-16T14:59:49;19.70;51.10
13440;DHT22;6792;57.698;11.946;2022-10-16T15:05:14;19.70;51.10
13440;DHT22;6792;57.698;11.946;2022-10-16T15:07:44;19.70;51.10
13440;DHT22;6792;57.698;11.946;2022-10-16T15:10:15;19.60;51.10
13440;DHT22;6792;57.698;11.946;2022-10-16T15:12:45;19.70;51.10
13440;DHT22;6792;57.698;11.946;2022-10-16T15:15:25;19.70;51.00
13440;DHT22;6792;57.698;11.946;2022-10-16T15:17:56;19.60;50.90
13440;DHT22;6792;57.698;11.946;2022-10-16T15:20:28;19.70;50.90
13440;DHT22;6792;57.698;11.946;2022-10-16T15:22:58;19.60;50.80
13440;DHT22;6792;57.698;11.946;2022-10-16T15:25:32;19.60;50.20
13440;DHT22;6792;57.698;11.946;2022-10-16T15:28:04;19.60;50.70
13440;DHT22;6792;57.698;11.946;2022-10-16T15:30:34;19.60;50.80
13440;DHT22;6792;57.698;11.946;2022-10-16T15:33:04;19.50;50.80
13440;DHT22;6792;57.698;11.946;2022-10-16T15:35:34;19.50;50.80
13440;DHT22;6792;57.698;11.946;2022-10-16T15:38:04;19.50;50.90
13440;DHT22;6792;57.698;11.946;2022-10-16T15:40:33;19.50;50.80
13440;DHT22;6792;57.698;11.946;2022-10-16T15:43:04;19.50;50.70
13440;DHT22;6792;57.698;11.946;2022-10-16T15:45:34;19.50;50.60
13440;DHT22;6792;57.698;11.946;2022-10-16T15:48:04;19.50;50.40
13440;DHT22;6792;57.698;11.946;2022-10-16T15:50:33;19.50;50.70
13440;DHT22;6792;57.698;11.946;2022-10-16T15:53:03;19.40;50.20
13440;DHT22;6792;57.698;11.946;2022-10-16T15:55:32;19.40;50.20
13440;DHT22;6792;57.698;11.946;2022-10-16T15:58:04;19.40;50.10
13440;DHT22;6792;57.698;11.946;2022-10-16T16:00:36;19.40;50.20
13440;DHT22;6792;57.698;11.946;2022-10-16T16:03:06;19.40;50.20
13440;DHT22;6792;57.698;11.946;2022-10-16T16:05:38;19.40;50.20
13440;DHT22;6792;57.698;11.946;2022-10-16T16:08:11;19.40;50.20
13440;DHT22;6792;57.698;11.946;2022-10-16T16:10:40;19.40;50.20
13440;DHT22;6792;57.698;11.946;2022-10-16T16:13:10;19.30;50.10
13440;DHT22;6792;57.698;11.946;2022-10-16T16:15:40;19.30;50.10
13440;DHT22;6792;57.698;11.946;2022-10-16T16:18:10;19.30;50.00
13440;DHT22;6792;57.698;11.946;2022-10-16T16:20:39;19.30;49.90
13440;DHT22;6792;57.698;11.946;2022-10-16T16:23:09;19.30;49.90
13440;DHT22;6792;57.698;11.946;2022-10-16T16:25:38;19.30;49.70
13440;DHT22;6792;57.698;11.946;2022-10-16T16:28:07;19.30;50.30
13440;DHT22;6792;57.698;11.946;2022-10-16T16:30:38;19.20;49.60
13440;DHT22;6792;57.698;11.946;2022-10-16T16:33:07;19.20;49.50
13440;DHT22;6792;57.698;11.946;2022-10-16T16:35:37;19.20;49.40
13440;DHT22;6792;57.698;11.946;2022-10-16T16:38:06;19.20;49.40
13440;DHT22;6792;57.698;11.946;2022-10-16T16:40:36;19.20;49.50
13440;DHT22;6792;57.698;11.946;2022-10-16T16:45:47;19.20;49.50
13440;DHT22;6792;57.698;11.946;2022-10-16T16:48:16;19.20;49.50
13440;DHT22;6792;57.698;11.946;2022-10-16T16:50:45;19.20;49.50
13440;DHT22;6792;57.698;11.946;2022-10-16T16:53:14;19.20;49.50
13440;DHT22;6792;57.698;11.946;2022-10-16T16:55:44;19.20;49.50
13440;DHT22;6792;57.698;11.946;2022-10-16T16:58:13;19.20;49.50
13440;DHT22;6792;57.698;11.946;2022-10-16T17:00:46;19.10;49.40
13440;DHT22;6792;57.698;11.946;2022-10-16T17:03:15;19.10;49.50
13440;DHT22;6792;57.698;11.946;2022-10-16T17:05:55;19.20;49.50
13440;DHT22;6792;57.698;11.946;2022-10-16T17:08:23;19.10;48.90
13440;DHT22;6792;57.698;11.946;2022-10-16T17:10:53;19.20;49.50
13440;DHT22;6792;57.698;11.946;2022-10-16T17:13:23;19.20;49.40
13440;DHT22;6792;57.698;11.946;2022-10-16T17:15:53;19.10;49.40
13440;DHT22;6792;57.698;11.946;2022-10-16T17:18:23;19.10;49.40
13440;DHT22;6792;57.698;11.946;2022-10-16T17:20:52;19.10;49.40
13440;DHT22;6792;57.698;11.946;2022-10-16T17:23:21;19.10;49.40
13440;DHT22;6792;57.698;11.946;2022-10-16T17:25:50;19.10;49.40
13440;DHT22;6792;57.698;11.946;2022-10-16T17:28:19;19.10;49.40
13440;DHT22;6792;57.698;11.946;2022-10-16T17:30:48;19.10;49.40
13440;DHT22;6792;57.698;11.946;2022-10-16T17:33:17;19.00;49.40
13440;DHT22;6792;57.698;11.946;2022-10-16T17:35:49;19.10;48.80
13440;DHT22;6792;57.698;11.946;2022-10-16T17:38:18;19.10;49.30
13440;DHT22;6792;57.698;11.946;2022-10-16T17:40:47;19.00;49.30
13440;DHT22;6792;57.698;11.946;2022-10-16T17:43:15;19.10;49.30
13440;DHT22;6792;57.698;11.946;2022-10-16T17:45:44;19.00;49.30
13440;DHT22;6792;57.698;11.946;2022-10-16T17:48:14;19.00;49.30
13440;DHT22;6792;57.698;11.946;2022-10-16T17:50:43;19.00;49.30
13440;DHT22;6792;57.698;11.946;2022-10-16T17:53:12;18.90;49.40
13440;DHT22;6792;57.698;11.946;2022-10-16T17:55:41;18.90;49.40
13440;DHT22;6792;57.698;11.946;2022-10-16T17:58:10;18.90;49.50
13440;DHT22;6792;57.698;11.946;2022-10-16T18:00:40;18.90;49.50
13440;DHT22;6792;57.698;11.946;2022-10-16T18:03:09;18.80;49.40
13440;DHT22;6792;57.698;11.946;2022-10-16T18:05:38;18.80;49.40
13440;DHT22;6792;57.698;11.946;2022-10-16T18:08:07;18.80;49.40
13440;DHT22;6792;57.698;11.946;2022-10-16T18:10:36;18.80;49.40
13440;DHT22;6792;57.698;11.946;2022-10-16T18:13:06;18.80;49.40
13440;DHT22;6792;57.698;11.946;2022-10-16T18:15:35;18.80;49.70
13440;DHT22;6792;57.698;11.946;2022-10-16T18:18:04;18.90;49.60
13440;DHT22;6792;57.698;11.946;2022-10-16T18:20:34;18.90;49.60
13440;DHT22;6792;57.698;11.946;2022-10-16T18:23:03;18.90;49.60
13440;DHT22;6792;57.698;11.946;2022-10-16T18:25:31;18.90;49.60
13440;DHT22;6792;57.698;11.946;2022-10-16T18:28:00;18.90;49.60
13440;DHT22;6792;57.698;11.946;2022-10-16T18:30:29;18.90;49.80
13440;DHT22;6792;57.698;11.946;2022-10-16T18:32:58;18.90;49.70
13440;DHT22;6792;57.698;11.946;2022-10-16T18:35:27;18.90;49.60
13440;DHT22;6792;57.698;11.946;2022-10-16T18:37:56;18.90;49.60
13440;DHT22;6792;57.698;11.946;2022-10-16T18:40:27;18.90;49.60
13440;DHT22;6792;57.698;11.946;2022-10-16T18:42:56;18.90;49.50
13440;DHT22;6792;57.698;11.946;2022-10-16T18:45:25;18.90;49.40
13440;DHT22;6792;57.698;11.946;2022-10-16T18:48:12;18.80;49.30
13440;DHT22;6792;57.698;11.946;2022-10-16T18:50:41;18.80;49.30
13440;DHT22;6792;57.698;11.946;2022-10-16T18:53:10;18.80;49.30
13440;DHT22;6792;57.698;11.946;2022-10-16T18:55:39;18.80;49.20
13440;DHT22;6792;57.698;11.946;2022-10-16T18:58:09;18.80;49.20
13440;DHT22;6792;57.698;11.946;2022-10-16T19:00:38;18.80;49.10
13440;DHT22;6792;57.698;11.946;2022-10-16T19:03:08;18.80;49.20
13440;DHT22;6792;57.698;11.946;2022-10-16T19:05:37;18.80;49.10
13440;DHT22;6792;57.698;11.946;2022-10-16T19:08:06;18.80;49.10
13440;DHT22;6792;57.698;11.946;2022-10-16T19:10:37;18.80;49.10
13440;DHT22;6792;57.698;11.946;2022-10-16T19:13:06;18.70;49.10
13440;DHT22;6792;57.698;11.946;2022-10-16T19:15:40;18.70;49.10
13440;DHT22;6792;57.698;11.946;2022-10-16T19:18:09;18.70;49.10
13440;DHT22;6792;57.698;11.946;2022-10-16T19:20:38;18.70;49.10
13440;DHT22;6792;57.698;11.946;2022-10-16T19:23:07;18.70;49.20
13440;DHT22;6792;57.698;11.946;2022-10-16T19:25:37;18.70;49.20
13440;DHT22;6792;57.698;11.946;2022-10-16T19:28:07;18.60;49.20
13440;DHT22;6792;57.698;11.946;2022-10-16T19:30:37;18.60;49.20
13440;DHT22;6792;57.698;11.946;2022-10-16T19:33:06;18.60;48.60
13440;DHT22;6792;57.698;11.946;2022-10-16T19:35:35;18.60;49.60
13440;DHT22;6792;57.698;11.946;2022-10-16T19:38:04;18.60;49.00
13440;DHT22;6792;57.698;11.946;2022-10-16T19:40:33;18.70;49.00
13440;DHT22;6792;57.698;11.946;2022-10-16T19:43:02;18.60;49.00
13440;DHT22;6792;57.698;11.946;2022-10-16T19:45:31;18.60;49.00
13440;DHT22;6792;57.698;11.946;2022-10-16T19:48:01;18.60;49.10
13440;DHT22;6792;57.698;11.946;2022-10-16T19:50:30;18.60;49.10
13440;DHT22;6792;57.698;11.946;2022-10-16T19:52:59;18.60;49.20
13440;DHT22;6792;57.698;11.946;2022-10-16T19:55:30;18.60;49.10
13440;DHT22;6792;57.698;11.946;2022-10-16T19:58:01;18.60;49.10
13440;DHT22;6792;57.698;11.946;2022-10-16T20:00:30;18.60;49.30
13440;DHT22;6792;57.698;11.946;2022-10-16T20:02:59;18.60;49.20
13440;DHT22;6792;57.698;11.946;2022-10-16T20:05:30;18.70;49.30
13440;DHT22;6792;57.698;11.946;2022-10-16T20:07:59;18.70;49.40
13440;DHT22;6792;57.698;11.946;2022-10-16T20:10:28;18.70;49.30
13440;DHT22;6792;57.698;11.946;2022-10-16T20:12:57;18.70;49.30
13440;DHT22;6792;57.698;11.946;2022-10-16T20:15:26;18.70;49.30
13440;DHT22;6792;57.698;11.946;2022-10-16T20:17:56;18.80;49.30
13440;DHT22;6792;57.698;11.946;2022-10-16T20:20:25;18.80;49.30
13440;DHT22;6792;57.698;11.946;2022-10-16T20:22:54;18.70;49.30
13440;DHT22;6792;57.698;11.946;2022-10-16T20:25:24;18.80;49.30
13440;DHT22;6792;57.698;11.946;2022-10-16T20:27:53;18.80;49.30
13440;DHT22;6792;57.698;11.946;2022-10-16T20:30:22;18.80;49.30
13440;DHT22;6792;57.698;11.946;2022-10-16T20:32:53;18.80;49.30
13440;DHT22;6792;57.698;11.946;2022-10-16T20:35:23;18.80;49.20
13440;DHT22;6792;57.698;11.946;2022-10-16T20:37:52;18.80;49.30
13440;DHT22;6792;57.698;11.946;2022-10-16T20:40:21;18.80;48.80
13440;DHT22;6792;57.698;11.946;2022-10-16T20:42:50;18.80;50.00
13440;DHT22;6792;57.698;11.946;2022-10-16T20:45:19;18.80;49.40
13440;DHT22;6792;57.698;11.946;2022-10-16T20:47:48;18.80;49.40
13440;DHT22;6792;57.698;11.946;2022-10-16T20:50:17;18.80;49.40
13440;DHT22;6792;57.698;11.946;2022-10-16T20:52:46;18.80;48.90
13440;DHT22;6792;57.698;11.946;2022-10-16T20:55:15;18.90;49.60
13440;DHT22;6792;57.698;11.946;2022-10-16T20:57:44;18.90;49.60
13440;DHT22;6792;57.698;11.946;2022-10-16T21:00:15;18.90;49.60
13440;DHT22;6792;57.698;11.946;2022-10-16T21:02:45;18.80;49.60
13440;DHT22;6792;57.698;11.946;2022-10-16T21:05:17;18.90;49.70
13440;DHT22;6792;57.698;11.946;2022-10-16T21:07:47;18.90;50.30
13440;DHT22;6792;57.698;11.946;2022-10-16T21:10:16;18.90;49.70
13440;DHT22;6792;57.698;11.946;2022-10-16T21:12:46;18.90;49.70
13440;DHT22;6792;57.698;11.946;2022-10-16T21:15:16;18.90;49.70
13440;DHT22;6792;57.698;11.946;2022-10-16T21:17:45;18.90;49.70
13440;DHT22;6792;57.698;11.946;2022-10-16T21:20:16;18.90;49.20
13440;DHT22;6792;57.698;11.946;2022-10-16T21:22:46;18.90;49.70
13440;DHT22;6792;57.698;11.946;2022-10-16T21:25:15;18.90;49.20
13440;DHT22;6792;57.698;11.946;2022-10-16T21:27:47;18.90;49.70
13440;DHT22;6792;57.698;11.946;2022-10-16T21:30:16;18.90;49.00
13440;DHT22;6792;57.698;11.946;2022-10-16T21:32:45;18.90;49.50
13440;DHT22;6792;57.698;11.946;2022-10-16T21:35:15;18.90;49.50
13440;DHT22;6792;57.698;11.946;2022-10-16T21:37:48;19.00;49.40
13440;DHT22;6792;57.698;11.946;2022-10-16T21:40:19;18.90;49.30
13440;DHT22;6792;57.698;11.946;2022-10-16T21:42:48;18.90;49.30
13440;DHT22;6792;57.698;11.946;2022-10-16T21:45:17;19.00;49.30
13440;DHT22;6792;57.698;11.946;2022-10-16T21:47:49;18.90;48.60
13440;DHT22;6792;57.698;11.946;2022-10-16T21:50:19;19.00;49.30
13440;DHT22;6792;57.698;11.946;2022-10-16T21:52:51;19.00;49.20
13440;DHT22;6792;57.698;11.946;2022-10-16T21:55:20;19.00;49.20
13440;DHT22;6792;57.698;11.946;2022-10-16T21:57:49;19.00;49.30
13440;DHT22;6792;57.698;11.946;2022-10-16T22:00:18;19.00;49.30
13440;DHT22;6792;57.698;11.946;2022-10-16T22:02:47;19.00;49.90
13440;DHT22;6792;57.698;11.946;2022-10-16T22:05:16;19.00;48.80
13440;DHT22;6792;57.698;11.946;2022-10-16T22:07:45;19.00;49.30
13440;DHT22;6792;57.698;11.946;2022-10-16T22:10:14;19.00;48.70
13440;DHT22;6792;57.698;11.946;2022-10-16T22:12:43;19.00;49.10
13440;DHT22;6792;57.698;11.946;2022-10-16T22:15:12;19.10;49.10
13440;DHT22;6792;57.698;11.946;2022-10-16T22:17:41;19.10;49.10
13440;DHT22;6792;57.698;11.946;2022-10-16T22:20:11;19.10;49.10
13440;DHT22;6792;57.698;11.946;2022-10-16T22:22:40;19.10;48.50
13440;DHT22;6792;57.698;11.946;2022-10-16T22:25:09;19.10;49.10
13440;DHT22;6792;57.698;11.946;2022-10-16T22:27:38;19.10;49.10
13440;DHT22;6792;57.698;11.946;2022-10-16T22:30:10;19.10;49.20